sensor_id;sensor_type;location;lat;lon;timestamp;P1;durP1;ratioP1;P2;durP2;ratioP2
65071;SDS011;51663;52.310;17.016;2023-03-19T00:00:11;56.57;;;28.07;;
65071;SDS011;51663;52.310;17.016;2023-03-19T00:03:34;50.53;;;28.03;;
65071;SDS011;51663;52.310;17.016;2023-03-19T00:06:36;57.47;;;28.00;;
65071;SDS011;51663;52.310;17.016;2023-03-19T00:09:39;64.37;;;30.83;;
65071;SDS011;51663;52.310;17.016;2023-03-19T00:12:41;68.67;;;30.87;;
65071;SDS011;51663;52.310;17.016;2023-03-19T00:15:43;65.83;;;30.20;;
65071;SDS011;51663;52.310;17.016;2023-03-19T00:18:46;71.73;;;30.87;;
65071;SDS011;51663;52.310;17.016;2023-03-19T00:21:49;61.53;;;31.30;;
65071;SDS011;51663;52.310;17.016;2023-03-19T00:24:52;68.77;;;32.20;;
65071;SDS011;51663;52.310;17.016;2023-03-19T00:27:54;68.43;;;32.73;;
65071;SDS011;51663;52.310;17.016;2023-03-19T00:30:56;74.17;;;33.53;;
65071;SDS011;51663;52.310;17.016;2023-03-19T00:33:59;69.70;;;31.70;;
65071;SDS011;51663;52.310;17.016;2023-03-19T00:37:01;70.97;;;31.23;;
65071;SDS011;51663;52.310;17.016;2023-03-19T00:40:04;64.97;;;29.37;;
65071;SDS011;51663;52.310;17.016;2023-03-19T00:43:07;73.33;;;31.53;;
65071;SDS011;51663;52.310;17.016;2023-03-19T00:46:09;64.10;;;31.20;;
65071;SDS011;51663;52.310;17.016;2023-03-19T00:49:11;63.20;;;30.57;;
65071;SDS011;51663;52.310;17.016;2023-03-19T00:52:14;67.33;;;31.33;;
65071;SDS011;51663;52.310;17.016;2023-03-19T00:55:17;57.97;;;29.67;;
65071;SDS011;51663;52.310;17.016;2023-03-19T00:58:19;62.17;;;30.40;;
65071;SDS011;51663;52.310;17.016;2023-03-19T01:01:21;58.40;;;31.20;;
65071;SDS011;51663;52.310;17.016;2023-03-19T01:04:24;54.53;;;29.27;;
65071;SDS011;51663;52.310;17.016;2023-03-19T01:07:26;54.60;;;29.80;;
65071;SDS011;51663;52.310;17.016;2023-03-19T01:10:28;52.97;;;30.67;;
65071;SDS011;51663;52.310;17.016;2023-03-19T01:13:33;57.90;;;30.33;;
65071;SDS011;51663;52.310;17.016;2023-03-19T01:16:36;59.53;;;29.63;;
65071;SDS011;51663;52.310;17.016;2023-03-19T01:19:38;53.60;;;28.83;;
65071;SDS011;51663;52.310;17.016;2023-03-19T01:22:40;63.73;;;31.57;;
65071;SDS011;51663;52.310;17.016;2023-03-19T01:25:43;77.57;;;36.37;;
65071;SDS011;51663;52.310;17.016;2023-03-19T01:28:46;75.77;;;37.00;;
65071;SDS011;51663;52.310;17.016;2023-03-19T01:31:48;69.30;;;35.30;;
65071;SDS011;51663;52.310;17.016;2023-03-19T01:34:52;72.87;;;35.53;;
65071;SDS011;51663;52.310;17.016;2023-03-19T01:37:54;77.43;;;37.73;;
65071;SDS011;51663;52.310;17.016;2023-03-19T01:40:56;79.10;;;38.33;;
65071;SDS011;51663;52.310;17.016;2023-03-19T01:43:58;70.30;;;36.27;;
65071;SDS011;51663;52.310;17.016;2023-03-19T01:47:05;62.93;;;33.70;;
65071;SDS011;51663;52.310;17.016;2023-03-19T01:53:52;67.73;;;35.03;;
65071;SDS011;51663;52.310;17.016;2023-03-19T01:57:06;69.90;;;35.53;;
65071;SDS011;51663;52.310;17.016;2023-03-19T02:00:10;57.80;;;32.83;;
65071;SDS011;51663;52.310;17.016;2023-03-19T02:03:13;68.23;;;35.10;;
65071;SDS011;51663;52.310;17.016;2023-03-19T02:06:15;66.20;;;35.43;;
65071;SDS011;51663;52.310;17.016;2023-03-19T02:09:20;65.40;;;33.53;;
65071;SDS011;51663;52.310;17.016;2023-03-19T02:12:22;63.87;;;33.93;;
65071;SDS011;51663;52.310;17.016;2023-03-19T02:15:25;64.03;;;34.43;;
65071;SDS011;51663;52.310;17.016;2023-03-19T02:18:27;65.70;;;33.37;;
65071;SDS011;51663;52.310;17.016;2023-03-19T02:21:31;62.57;;;33.33;;
65071;SDS011;51663;52.310;17.016;2023-03-19T02:24:38;71.93;;;36.57;;
65071;SDS011;51663;52.310;17.016;2023-03-19T02:27:49;71.13;;;37.20;;
65071;SDS011;51663;52.310;17.016;2023-03-19T02:30:52;62.67;;;34.67;;
65071;SDS011;51663;52.310;17.016;2023-03-19T02:33:55;71.87;;;38.33;;
65071;SDS011;51663;52.310;17.016;2023-03-19T02:36:59;68.43;;;36.90;;
65071;SDS011;51663;52.310;17.016;2023-03-19T02:40:15;61.33;;;32.97;;
65071;SDS011;51663;52.310;17.016;2023-03-19T02:43:25;67.23;;;34.00;;
65071;SDS011;51663;52.310;17.016;2023-03-19T02:46:27;68.07;;;35.20;;
65071;SDS011;51663;52.310;17.016;2023-03-19T02:49:30;69.50;;;33.63;;
65071;SDS011;51663;52.310;17.016;2023-03-19T02:52:32;69.43;;;34.57;;
65071;SDS011;51663;52.310;17.016;2023-03-19T02:55:34;61.40;;;33.67;;
65071;SDS011;51663;52.310;17.016;2023-03-19T02:58:37;70.83;;;35.53;;
65071;SDS011;51663;52.310;17.016;2023-03-19T03:01:39;70.77;;;35.73;;
65071;SDS011;51663;52.310;17.016;2023-03-19T03:04:42;68.23;;;35.47;;
65071;SDS011;51663;52.310;17.016;2023-03-19T03:07:44;71.97;;;35.33;;
65071;SDS011;51663;52.310;17.016;2023-03-19T03:10:46;73.27;;;35.90;;
65071;SDS011;51663;52.310;17.016;2023-03-19T03:13:49;78.70;;;38.60;;
65071;SDS011;51663;52.310;17.016;2023-03-19T03:16:51;81.30;;;39.93;;
65071;SDS011;51663;52.310;17.016;2023-03-19T03:19:53;94.00;;;45.10;;
65071;SDS011;51663;52.310;17.016;2023-03-19T03:22:55;93.07;;;45.67;;
65071;SDS011;51663;52.310;17.016;2023-03-19T03:25:57;107.27;;;47.90;;
65071;SDS011;51663;52.310;17.016;2023-03-19T03:28:59;103.43;;;47.47;;
65071;SDS011;51663;52.310;17.016;2023-03-19T03:32:01;105.87;;;48.10;;
65071;SDS011;51663;52.310;17.016;2023-03-19T03:35:04;102.73;;;48.00;;
65071;SDS011;51663;52.310;17.016;2023-03-19T03:38:07;102.53;;;49.00;;
65071;SDS011;51663;52.310;17.016;2023-03-19T03:41:10;112.50;;;51.50;;
65071;SDS011;51663;52.310;17.016;2023-03-19T03:44:12;101.90;;;50.00;;
65071;SDS011;51663;52.310;17.016;2023-03-19T03:47:14;101.57;;;49.37;;
65071;SDS011;51663;52.310;17.016;2023-03-19T03:50:18;104.73;;;49.87;;
65071;SDS011;51663;52.310;17.016;2023-03-19T03:53:21;99.50;;;49.37;;
65071;SDS011;51663;52.310;17.016;2023-03-19T03:56:23;101.40;;;48.27;;
65071;SDS011;51663;52.310;17.016;2023-03-19T03:59:25;103.87;;;50.53;;
65071;SDS011;51663;52.310;17.016;2023-03-19T04:02:27;106.03;;;48.50;;
65071;SDS011;51663;52.310;17.016;2023-03-19T04:05:30;103.63;;;48.90;;
65071;SDS011;51663;52.310;17.016;2023-03-19T04:08:32;101.53;;;48.53;;
65071;SDS011;51663;52.310;17.016;2023-03-19T04:11:35;99.67;;;48.07;;
65071;SDS011;51663;52.310;17.016;2023-03-19T04:14:37;94.10;;;46.37;;
65071;SDS011;51663;52.310;17.016;2023-03-19T04:17:39;95.13;;;45.13;;
65071;SDS011;51663;52.310;17.016;2023-03-19T04:20:42;84.10;;;43.47;;
65071;SDS011;51663;52.310;17.016;2023-03-19T04:23:44;83.63;;;42.47;;
65071;SDS011;51663;52.310;17.016;2023-03-19T04:26:46;86.40;;;40.57;;
65071;SDS011;51663;52.310;17.016;2023-03-19T04:29:50;91.13;;;43.63;;
65071;SDS011;51663;52.310;17.016;2023-03-19T04:32:52;81.07;;;41.87;;
65071;SDS011;51663;52.310;17.016;2023-03-19T04:35:54;81.60;;;40.97;;
65071;SDS011;51663;52.310;17.016;2023-03-19T04:38:57;82.37;;;40.83;;
65071;SDS011;51663;52.310;17.016;2023-03-19T04:41:59;85.67;;;41.73;;
65071;SDS011;51663;52.310;17.016;2023-03-19T04:45:01;82.80;;;39.53;;
65071;SDS011;51663;52.310;17.016;2023-03-19T04:48:05;75.23;;;38.73;;
65071;SDS011;51663;52.310;17.016;2023-03-19T04:51:07;77.63;;;38.23;;
65071;SDS011;51663;52.310;17.016;2023-03-19T04:54:09;83.10;;;39.73;;
65071;SDS011;51663;52.310;17.016;2023-03-19T04:57:12;77.60;;;39.30;;
65071;SDS011;51663;52.310;17.016;2023-03-19T05:00:14;82.10;;;38.73;;
65071;SDS011;51663;52.310;17.016;2023-03-19T05:03:18;88.60;;;41.07;;
65071;SDS011;51663;52.310;17.016;2023-03-19T05:06:20;75.30;;;37.80;;
65071;SDS011;51663;52.310;17.016;2023-03-19T05:09:23;75.63;;;38.60;;
65071;SDS011;51663;52.310;17.016;2023-03-19T05:12:25;71.87;;;36.83;;
65071;SDS011;51663;52.310;17.016;2023-03-19T05:15:27;72.00;;;35.80;;
65071;SDS011;51663;52.310;17.016;2023-03-19T05:18:30;71.67;;;35.03;;
65071;SDS011;51663;52.310;17.016;2023-03-19T05:21:32;75.87;;;36.20;;
65071;SDS011;51663;52.310;17.016;2023-03-19T05:24:34;72.63;;;36.53;;
65071;SDS011;51663;52.310;17.016;2023-03-19T05:27:36;73.90;;;36.57;;
65071;SDS011;51663;52.310;17.016;2023-03-19T05:30:39;66.47;;;34.70;;
65071;SDS011;51663;52.310;17.016;2023-03-19T05:33:41;63.50;;;34.23;;
65071;SDS011;51663;52.310;17.016;2023-03-19T05:36:43;70.67;;;33.87;;
65071;SDS011;51663;52.310;17.016;2023-03-19T05:39:46;72.63;;;34.97;;
65071;SDS011;51663;52.310;17.016;2023-03-19T05:42:48;68.73;;;34.23;;
65071;SDS011;51663;52.310;17.016;2023-03-19T05:45:51;71.13;;;36.33;;
65071;SDS011;51663;52.310;17.016;2023-03-19T05:48:53;67.47;;;34.67;;
65071;SDS011;51663;52.310;17.016;2023-03-19T05:51:56;80.70;;;38.47;;
65071;SDS011;51663;52.310;17.016;2023-03-19T05:54:58;76.73;;;37.77;;
65071;SDS011;51663;52.310;17.016;2023-03-19T05:58:00;74.70;;;36.97;;
65071;SDS011;51663;52.310;17.016;2023-03-19T06:01:02;72.73;;;37.80;;
65071;SDS011;51663;52.310;17.016;2023-03-19T06:04:05;74.97;;;39.10;;
65071;SDS011;51663;52.310;17.016;2023-03-19T06:07:07;70.67;;;37.80;;
65071;SDS011;51663;52.310;17.016;2023-03-19T06:10:10;75.47;;;37.83;;
65071;SDS011;51663;52.310;17.016;2023-03-19T06:13:12;71.20;;;37.50;;
65071;SDS011;51663;52.310;17.016;2023-03-19T06:16:14;74.90;;;40.13;;
65071;SDS011;51663;52.310;17.016;2023-03-19T06:19:18;70.33;;;37.67;;
65071;SDS011;51663;52.310;17.016;2023-03-19T06:22:20;69.37;;;37.27;;
65071;SDS011;51663;52.310;17.016;2023-03-19T06:25:22;66.80;;;37.20;;
65071;SDS011;51663;52.310;17.016;2023-03-19T06:28:25;62.13;;;34.90;;
65071;SDS011;51663;52.310;17.016;2023-03-19T06:31:27;63.20;;;35.40;;
65071;SDS011;51663;52.310;17.016;2023-03-19T06:34:29;65.70;;;36.33;;
65071;SDS011;51663;52.310;17.016;2023-03-19T06:37:31;61.60;;;34.80;;
65071;SDS011;51663;52.310;17.016;2023-03-19T06:40:35;72.67;;;37.20;;
65071;SDS011;51663;52.310;17.016;2023-03-19T06:43:37;63.20;;;33.83;;
65071;SDS011;51663;52.310;17.016;2023-03-19T06:46:42;61.10;;;35.20;;
65071;SDS011;51663;52.310;17.016;2023-03-19T06:49:44;61.20;;;35.23;;
65071;SDS011;51663;52.310;17.016;2023-03-19T06:52:47;55.87;;;34.37;;
65071;SDS011;51663;52.310;17.016;2023-03-19T06:55:49;61.73;;;35.50;;
65071;SDS011;51663;52.310;17.016;2023-03-19T06:58:52;63.03;;;36.00;;
65071;SDS011;51663;52.310;17.016;2023-03-19T07:01:54;60.93;;;34.93;;
65071;SDS011;51663;52.310;17.016;2023-03-19T07:04:56;62.57;;;33.70;;
65071;SDS011;51663;52.310;17.016;2023-03-19T07:07:58;58.40;;;33.03;;
65071;SDS011;51663;52.310;17.016;2023-03-19T07:11:02;53.53;;;31.87;;
65071;SDS011;51663;52.310;17.016;2023-03-19T07:14:05;56.90;;;32.27;;
65071;SDS011;51663;52.310;17.016;2023-03-19T07:17:07;56.97;;;31.57;;
65071;SDS011;51663;52.310;17.016;2023-03-19T07:20:11;54.80;;;31.80;;
65071;SDS011;51663;52.310;17.016;2023-03-19T07:23:14;51.60;;;31.60;;
65071;SDS011;51663;52.310;17.016;2023-03-19T07:26:16;54.23;;;34.20;;
65071;SDS011;51663;52.310;17.016;2023-03-19T07:29:19;58.63;;;35.90;;
65071;SDS011;51663;52.310;17.016;2023-03-19T07:32:21;61.75;;;36.00;;
65071;SDS011;51663;52.310;17.016;2023-03-19T07:35:24;58.13;;;36.83;;
65071;SDS011;51663;52.310;17.016;2023-03-19T07:38:27;55.67;;;34.63;;
65071;SDS011;51663;52.310;17.016;2023-03-19T07:41:29;56.42;;;34.10;;
65071;SDS011;51663;52.310;17.016;2023-03-19T07:44:31;44.50;;;28.42;;
65071;SDS011;51663;52.310;17.016;2023-03-19T07:47:34;41.80;;;26.70;;
65071;SDS011;51663;52.310;17.016;2023-03-19T07:50:36;44.10;;;28.20;;
65071;SDS011;51663;52.310;17.016;2023-03-19T07:53:38;43.53;;;28.20;;
65071;SDS011;51663;52.310;17.016;2023-03-19T07:56:41;42.15;;;28.35;;
65071;SDS011;51663;52.310;17.016;2023-03-19T07:59:43;37.30;;;27.25;;
65071;SDS011;51663;52.310;17.016;2023-03-19T08:02:46;39.95;;;26.20;;
65071;SDS011;51663;52.310;17.016;2023-03-19T08:05:49;37.78;;;27.10;;
65071;SDS011;51663;52.310;17.016;2023-03-19T08:08:52;43.25;;;28.50;;
65071;SDS011;51663;52.310;17.016;2023-03-19T08:11:55;41.47;;;27.27;;
65071;SDS011;51663;52.310;17.016;2023-03-19T08:14:57;41.28;;;26.38;;
65071;SDS011;51663;52.310;17.016;2023-03-19T08:17:59;38.08;;;26.75;;
65071;SDS011;51663;52.310;17.016;2023-03-19T08:21:04;35.22;;;23.15;;
65071;SDS011;51663;52.310;17.016;2023-03-19T08:24:07;29.30;;;21.67;;
65071;SDS011;51663;52.310;17.016;2023-03-19T08:27:09;35.40;;;21.90;;
65071;SDS011;51663;52.310;17.016;2023-03-19T08:30:12;30.27;;;20.83;;
65071;SDS011;51663;52.310;17.016;2023-03-19T08:33:14;32.50;;;20.33;;
65071;SDS011;51663;52.310;17.016;2023-03-19T08:36:16;30.98;;;21.05;;
65071;SDS011;51663;52.310;17.016;2023-03-19T08:39:19;33.25;;;20.30;;
65071;SDS011;51663;52.310;17.016;2023-03-19T08:42:21;32.83;;;21.27;;
65071;SDS011;51663;52.310;17.016;2023-03-19T08:45:23;28.70;;;20.00;;
65071;SDS011;51663;52.310;17.016;2023-03-19T08:48:26;27.35;;;19.05;;
65071;SDS011;51663;52.310;17.016;2023-03-19T08:51:28;26.92;;;18.67;;
65071;SDS011;51663;52.310;17.016;2023-03-19T08:54:32;24.77;;;17.35;;
65071;SDS011;51663;52.310;17.016;2023-03-19T08:57:34;23.73;;;17.95;;
65071;SDS011;51663;52.310;17.016;2023-03-19T09:00:37;26.35;;;17.70;;
65071;SDS011;51663;52.310;17.016;2023-03-19T09:03:40;29.73;;;19.27;;
65071;SDS011;51663;52.310;17.016;2023-03-19T09:06:44;27.83;;;18.95;;
65071;SDS011;51663;52.310;17.016;2023-03-19T09:09:46;28.17;;;19.42;;
65071;SDS011;51663;52.310;17.016;2023-03-19T09:12:49;26.27;;;19.38;;
65071;SDS011;51663;52.310;17.016;2023-03-19T09:15:51;27.13;;;19.15;;
65071;SDS011;51663;52.310;17.016;2023-03-19T09:18:54;25.73;;;18.27;;
65071;SDS011;51663;52.310;17.016;2023-03-19T09:21:59;28.10;;;18.25;;
65071;SDS011;51663;52.310;17.016;2023-03-19T09:25:02;29.00;;;18.70;;
65071;SDS011;51663;52.310;17.016;2023-03-19T09:28:04;26.48;;;17.75;;
65071;SDS011;51663;52.310;17.016;2023-03-19T09:31:10;28.58;;;17.40;;
65071;SDS011;51663;52.310;17.016;2023-03-19T09:34:12;25.83;;;18.00;;
65071;SDS011;51663;52.310;17.016;2023-03-19T09:37:15;22.33;;;17.33;;
65071;SDS011;51663;52.310;17.016;2023-03-19T09:40:28;24.17;;;18.13;;
65071;SDS011;51663;52.310;17.016;2023-03-19T09:43:56;24.45;;;17.45;;
65071;SDS011;51663;52.310;17.016;2023-03-19T09:50:37;20.17;;;15.80;;
65071;SDS011;51663;52.310;17.016;2023-03-19T09:53:41;23.45;;;16.60;;
65071;SDS011;51663;52.310;17.016;2023-03-19T09:56:50;26.65;;;18.02;;
65071;SDS011;51663;52.310;17.016;2023-03-19T09:59:52;25.15;;;16.88;;
65071;SDS011;51663;52.310;17.016;2023-03-19T10:02:57;25.20;;;18.40;;
65071;SDS011;51663;52.310;17.016;2023-03-19T10:06:32;23.35;;;17.02;;
65071;SDS011;51663;52.310;17.016;2023-03-19T10:09:53;24.40;;;17.50;;
65071;SDS011;51663;52.310;17.016;2023-03-19T10:16:45;23.13;;;16.77;;
65071;SDS011;51663;52.310;17.016;2023-03-19T10:19:54;20.77;;;16.35;;
65071;SDS011;51663;52.310;17.016;2023-03-19T10:26:30;25.65;;;16.08;;
65071;SDS011;51663;52.310;17.016;2023-03-19T10:29:36;22.50;;;15.82;;
65071;SDS011;51663;52.310;17.016;2023-03-19T10:32:43;22.30;;;16.52;;
65071;SDS011;51663;52.310;17.016;2023-03-19T10:36:01;24.95;;;19.00;;
65071;SDS011;51663;52.310;17.016;2023-03-19T10:39:08;21.30;;;16.05;;
65071;SDS011;51663;52.310;17.016;2023-03-19T10:45:50;24.98;;;17.25;;
65071;SDS011;51663;52.310;17.016;2023-03-19T10:48:52;21.33;;;16.35;;
65071;SDS011;51663;52.310;17.016;2023-03-19T10:51:55;24.08;;;16.45;;
65071;SDS011;51663;52.310;17.016;2023-03-19T10:55:13;22.30;;;16.27;;
65071;SDS011;51663;52.310;17.016;2023-03-19T10:58:24;21.15;;;15.88;;
65071;SDS011;51663;52.310;17.016;2023-03-19T11:01:35;22.52;;;17.38;;
65071;SDS011;51663;52.310;17.016;2023-03-19T11:04:39;21.30;;;16.67;;
65071;SDS011;51663;52.310;17.016;2023-03-19T11:07:41;23.88;;;16.83;;
65071;SDS011;51663;52.310;17.016;2023-03-19T11:10:44;23.42;;;16.15;;
65071;SDS011;51663;52.310;17.016;2023-03-19T11:13:52;22.65;;;16.40;;
65071;SDS011;51663;52.310;17.016;2023-03-19T11:16:55;21.60;;;16.10;;
65071;SDS011;51663;52.310;17.016;2023-03-19T11:23:37;33.97;;;25.58;;
65071;SDS011;51663;52.310;17.016;2023-03-19T11:26:41;21.95;;;16.52;;
65071;SDS011;51663;52.310;17.016;2023-03-19T11:29:44;20.10;;;15.23;;
65071;SDS011;51663;52.310;17.016;2023-03-19T11:43:52;23.08;;;14.88;;
65071;SDS011;51663;52.310;17.016;2023-03-19T11:53:57;22.05;;;15.27;;
65071;SDS011;51663;52.310;17.016;2023-03-19T11:57:11;20.15;;;14.93;;
65071;SDS011;51663;52.310;17.016;2023-03-19T12:20:27;19.02;;;14.27;;
65071;SDS011;51663;52.310;17.016;2023-03-19T12:28:07;22.95;;;15.63;;
65071;SDS011;51663;52.310;17.016;2023-03-19T12:35:09;24.95;;;15.98;;
65071;SDS011;51663;52.310;17.016;2023-03-19T12:38:25;25.02;;;16.33;;
65071;SDS011;51663;52.310;17.016;2023-03-19T12:41:46;20.27;;;14.82;;
65071;SDS011;51663;52.310;17.016;2023-03-19T12:44:51;20.27;;;15.25;;
65071;SDS011;51663;52.310;17.016;2023-03-19T12:48:05;20.65;;;15.93;;
65071;SDS011;51663;52.310;17.016;2023-03-19T12:51:27;22.77;;;16.23;;
65071;SDS011;51663;52.310;17.016;2023-03-19T12:54:38;21.98;;;15.38;;
65071;SDS011;51663;52.310;17.016;2023-03-19T12:57:50;20.25;;;14.95;;
65071;SDS011;51663;52.310;17.016;2023-03-19T13:00:59;32.50;;;17.55;;
65071;SDS011;51663;52.310;17.016;2023-03-19T13:04:25;22.70;;;16.20;;
65071;SDS011;51663;52.310;17.016;2023-03-19T13:07:39;28.98;;;16.23;;
65071;SDS011;51663;52.310;17.016;2023-03-19T13:10:54;21.55;;;15.98;;
65071;SDS011;51663;52.310;17.016;2023-03-19T13:14:09;19.58;;;15.68;;
65071;SDS011;51663;52.310;17.016;2023-03-19T13:17:36;21.00;;;15.82;;
65071;SDS011;51663;52.310;17.016;2023-03-19T13:24:35;20.85;;;15.73;;
65071;SDS011;51663;52.310;17.016;2023-03-19T13:27:40;25.33;;;17.40;;
65071;SDS011;51663;52.310;17.016;2023-03-19T13:30:56;26.08;;;16.63;;
65071;SDS011;51663;52.310;17.016;2023-03-19T13:37:18;25.63;;;17.27;;
65071;SDS011;51663;52.310;17.016;2023-03-19T13:40:56;22.30;;;16.20;;
65071;SDS011;51663;52.310;17.016;2023-03-19T13:43:54;23.35;;;16.48;;
65071;SDS011;51663;52.310;17.016;2023-03-19T13:47:01;24.35;;;16.60;;
65071;SDS011;51663;52.310;17.016;2023-03-19T13:50:27;22.05;;;16.35;;
65071;SDS011;51663;52.310;17.016;2023-03-19T13:53:36;30.80;;;16.98;;
65071;SDS011;51663;52.310;17.016;2023-03-19T14:10:18;22.67;;;16.88;;
65071;SDS011;51663;52.310;17.016;2023-03-19T14:16:40;25.70;;;16.67;;
65071;SDS011;51663;52.310;17.016;2023-03-19T14:19:48;25.27;;;17.48;;
65071;SDS011;51663;52.310;17.016;2023-03-19T14:22:54;29.45;;;19.05;;
65071;SDS011;51663;52.310;17.016;2023-03-19T14:26:11;27.95;;;18.42;;
65071;SDS011;51663;52.310;17.016;2023-03-19T14:29:23;26.65;;;17.02;;
65071;SDS011;51663;52.310;17.016;2023-03-19T14:32:34;29.20;;;18.58;;
65071;SDS011;51663;52.310;17.016;2023-03-19T14:35:43;32.38;;;20.15;;
65071;SDS011;51663;52.310;17.016;2023-03-19T14:42:37;38.92;;;23.13;;
65071;SDS011;51663;52.310;17.016;2023-03-19T14:55:35;27.98;;;17.63;;
65071;SDS011;51663;52.310;17.016;2023-03-19T14:58:46;29.98;;;16.88;;
65071;SDS011;51663;52.310;17.016;2023-03-19T15:01:51;36.47;;;20.45;;
65071;SDS011;51663;52.310;17.016;2023-03-19T15:04:54;28.15;;;19.25;;
65071;SDS011;51663;52.310;17.016;2023-03-19T15:08:01;25.88;;;19.40;;
65071;SDS011;51663;52.310;17.016;2023-03-19T15:14:36;26.52;;;18.38;;
65071;SDS011;51663;52.310;17.016;2023-03-19T15:18:09;32.55;;;20.63;;
65071;SDS011;51663;52.310;17.016;2023-03-19T15:21:12;38.97;;;22.92;;
65071;SDS011;51663;52.310;17.016;2023-03-19T15:24:15;35.05;;;21.20;;
65071;SDS011;51663;52.310;17.016;2023-03-19T15:27:23;31.73;;;21.17;;
65071;SDS011;51663;52.310;17.016;2023-03-19T15:30:27;27.58;;;18.13;;
65071;SDS011;51663;52.310;17.016;2023-03-19T15:33:34;25.45;;;16.83;;
65071;SDS011;51663;52.310;17.016;2023-03-19T15:36:43;22.27;;;16.63;;
65071;SDS011;51663;52.310;17.016;2023-03-19T15:39:48;20.27;;;15.13;;
65071;SDS011;51663;52.310;17.016;2023-03-19T15:42:54;25.60;;;16.50;;
65071;SDS011;51663;52.310;17.016;2023-03-19T15:46:03;27.45;;;15.90;;
65071;SDS011;51663;52.310;17.016;2023-03-19T15:52:13;24.02;;;15.77;;
65071;SDS011;51663;52.310;17.016;2023-03-19T15:55:18;24.45;;;16.50;;
65071;SDS011;51663;52.310;17.016;2023-03-19T15:58:25;25.65;;;16.45;;
65071;SDS011;51663;52.310;17.016;2023-03-19T16:01:31;27.45;;;17.33;;
65071;SDS011;51663;52.310;17.016;2023-03-19T16:04:34;28.15;;;16.63;;
65071;SDS011;51663;52.310;17.016;2023-03-19T16:07:58;26.48;;;17.73;;
65071;SDS011;51663;52.310;17.016;2023-03-19T16:14:49;26.70;;;16.90;;
65071;SDS011;51663;52.310;17.016;2023-03-19T16:21:41;35.75;;;18.15;;
65071;SDS011;51663;52.310;17.016;2023-03-19T16:24:44;27.10;;;17.10;;
65071;SDS011;51663;52.310;17.016;2023-03-19T16:27:48;31.83;;;17.65;;
65071;SDS011;51663;52.310;17.016;2023-03-19T16:30:52;37.60;;;16.92;;
65071;SDS011;51663;52.310;17.016;2023-03-19T16:33:55;37.47;;;17.85;;
65071;SDS011;51663;52.310;17.016;2023-03-19T16:36:57;36.80;;;17.30;;
65071;SDS011;51663;52.310;17.016;2023-03-19T16:43:23;38.97;;;22.38;;
65071;SDS011;51663;52.310;17.016;2023-03-19T16:46:34;56.33;;;28.23;;
65071;SDS011;51663;52.310;17.016;2023-03-19T16:49:37;61.80;;;25.17;;
65071;SDS011;51663;52.310;17.016;2023-03-19T16:52:39;39.38;;;20.58;;
65071;SDS011;51663;52.310;17.016;2023-03-19T16:55:43;47.90;;;23.17;;
65071;SDS011;51663;52.310;17.016;2023-03-19T16:58:46;40.78;;;21.48;;
65071;SDS011;51663;52.310;17.016;2023-03-19T17:01:48;43.42;;;21.20;;
65071;SDS011;51663;52.310;17.016;2023-03-19T17:04:51;37.38;;;20.58;;
65071;SDS011;51663;52.310;17.016;2023-03-19T17:07:53;41.65;;;21.55;;
65071;SDS011;51663;52.310;17.016;2023-03-19T17:10:58;39.08;;;20.67;;
65071;SDS011;51663;52.310;17.016;2023-03-19T17:14:00;42.17;;;21.80;;
65071;SDS011;51663;52.310;17.016;2023-03-19T17:17:05;52.37;;;21.47;;
65071;SDS011;51663;52.310;17.016;2023-03-19T17:20:19;51.23;;;22.87;;
65071;SDS011;51663;52.310;17.016;2023-03-19T17:23:28;69.17;;;23.53;;
65071;SDS011;51663;52.310;17.016;2023-03-19T17:26:31;58.80;;;23.50;;
65071;SDS011;51663;52.310;17.016;2023-03-19T17:29:33;53.37;;;26.07;;
65071;SDS011;51663;52.310;17.016;2023-03-19T17:32:35;58.30;;;26.60;;
65071;SDS011;51663;52.310;17.016;2023-03-19T17:35:40;56.17;;;24.60;;
65071;SDS011;51663;52.310;17.016;2023-03-19T17:38:42;52.10;;;25.47;;
65071;SDS011;51663;52.310;17.016;2023-03-19T17:41:45;60.93;;;24.43;;
65071;SDS011;51663;52.310;17.016;2023-03-19T17:44:47;52.77;;;25.33;;
65071;SDS011;51663;52.310;17.016;2023-03-19T17:47:50;54.23;;;25.23;;
65071;SDS011;51663;52.310;17.016;2023-03-19T17:50:55;83.73;;;36.83;;
65071;SDS011;51663;52.310;17.016;2023-03-19T17:54:01;77.07;;;36.00;;
65071;SDS011;51663;52.310;17.016;2023-03-19T17:57:04;91.63;;;40.27;;
65071;SDS011;51663;52.310;17.016;2023-03-19T18:00:08;71.83;;;35.07;;
65071;SDS011;51663;52.310;17.016;2023-03-19T18:03:12;74.83;;;35.00;;
65071;SDS011;51663;52.310;17.016;2023-03-19T18:06:23;66.33;;;30.73;;
65071;SDS011;51663;52.310;17.016;2023-03-19T18:09:29;74.20;;;32.67;;
65071;SDS011;51663;52.310;17.016;2023-03-19T18:12:33;71.97;;;32.37;;
65071;SDS011;51663;52.310;17.016;2023-03-19T18:15:36;76.00;;;34.77;;
65071;SDS011;51663;52.310;17.016;2023-03-19T18:18:41;75.70;;;33.47;;
65071;SDS011;51663;52.310;17.016;2023-03-19T18:21:43;71.00;;;31.67;;
65071;SDS011;51663;52.310;17.016;2023-03-19T18:24:45;81.20;;;33.83;;
65071;SDS011;51663;52.310;17.016;2023-03-19T18:27:47;85.97;;;36.83;;
65071;SDS011;51663;52.310;17.016;2023-03-19T18:30:50;94.83;;;40.17;;
65071;SDS011;51663;52.310;17.016;2023-03-19T18:33:58;85.93;;;36.90;;
65071;SDS011;51663;52.310;17.016;2023-03-19T18:37:03;88.00;;;38.17;;
65071;SDS011;51663;52.310;17.016;2023-03-19T18:40:05;84.43;;;37.10;;
65071;SDS011;51663;52.310;17.016;2023-03-19T18:43:11;108.53;;;43.73;;
65071;SDS011;51663;52.310;17.016;2023-03-19T18:46:21;83.27;;;38.63;;
65071;SDS011;51663;52.310;17.016;2023-03-19T18:49:28;101.13;;;43.90;;
65071;SDS011;51663;52.310;17.016;2023-03-19T18:52:30;128.80;;;45.47;;
65071;SDS011;51663;52.310;17.016;2023-03-19T18:55:32;132.43;;;45.80;;
65071;SDS011;51663;52.310;17.016;2023-03-19T18:58:35;110.27;;;43.17;;
65071;SDS011;51663;52.310;17.016;2023-03-19T19:01:39;108.53;;;44.77;;
65071;SDS011;51663;52.310;17.016;2023-03-19T19:04:42;106.17;;;42.30;;
65071;SDS011;51663;52.310;17.016;2023-03-19T19:07:44;119.23;;;48.00;;
65071;SDS011;51663;52.310;17.016;2023-03-19T19:10:53;130.60;;;57.07;;
65071;SDS011;51663;52.310;17.016;2023-03-19T19:13:59;123.53;;;54.93;;
65071;SDS011;51663;52.310;17.016;2023-03-19T19:17:03;151.30;;;68.83;;
65071;SDS011;51663;52.310;17.016;2023-03-19T19:20:10;174.47;;;79.93;;
65071;SDS011;51663;52.310;17.016;2023-03-19T19:23:17;247.50;;;114.20;;
65071;SDS011;51663;52.310;17.016;2023-03-19T19:26:24;86.47;;;44.23;;
65071;SDS011;51663;52.310;17.016;2023-03-19T19:29:28;127.47;;;60.97;;
65071;SDS011;51663;52.310;17.016;2023-03-19T19:32:31;133.33;;;62.80;;
65071;SDS011;51663;52.310;17.016;2023-03-19T19:35:35;137.40;;;63.63;;
65071;SDS011;51663;52.310;17.016;2023-03-19T19:38:38;118.13;;;56.70;;
65071;SDS011;51663;52.310;17.016;2023-03-19T19:41:40;173.00;;;80.70;;
65071;SDS011;51663;52.310;17.016;2023-03-19T19:44:49;137.50;;;53.87;;
65071;SDS011;51663;52.310;17.016;2023-03-19T19:47:59;157.00;;;64.50;;